createdAt,value
2023-04-18T00:00:52.720Z,2766.00
2023-04-18T00:01:52.859Z,2762.00
2023-04-18T00:02:52.954Z,2764.00
2023-04-18T00:03:53.144Z,2761.00
2023-04-18T00:04:52.948Z,2754.00
2023-04-18T00:05:52.919Z,2754.00
2023-04-18T00:06:52.949Z,2752.00
2023-04-18T00:07:53.026Z,2752.00
2023-04-18T00:08:53.047Z,2752.00
2023-04-18T00:09:53.017Z,2752.00
2023-04-18T00:10:53.026Z,2754.00
2023-04-18T00:11:53.047Z,2752.00
2023-04-18T00:12:53.084Z,2757.00
2023-04-18T00:13:53.031Z,2758.00
2023-04-18T00:14:53.040Z,2747.00
2023-04-18T00:15:53.036Z,2753.00
2023-04-18T00:16:53.083Z,2744.00
2023-04-18T00:17:53.132Z,2744.00
2023-04-18T00:18:53.046Z,2737.00
2023-04-18T00:19:53.044Z,2735.00
2023-04-18T00:20:53.045Z,2730.00
2023-04-18T00:21:53.051Z,2729.00
2023-04-18T00:22:53.046Z,2725.00
2023-04-18T00:23:53.049Z,2726.00
2023-04-18T00:24:53.093Z,2726.00
2023-04-18T00:25:53.131Z,2723.00
2023-04-18T00:26:53.203Z,2713.00
2023-04-18T00:27:53.224Z,2718.00
2023-04-18T00:28:53.260Z,2717.00
2023-04-18T00:29:53.307Z,2712.00
2023-04-18T00:30:53.363Z,2708.00
2023-04-18T00:31:53.379Z,2711.00
2023-04-18T00:32:53.452Z,2706.00
2023-04-18T00:33:53.484Z,2705.00
2023-04-18T00:34:53.509Z,2710.00
2023-04-18T00:35:53.547Z,2700.00
2023-04-18T00:36:53.599Z,2693.00
2023-04-18T00:37:53.634Z,2702.00
2023-04-18T00:38:53.690Z,2692.00
2023-04-18T00:39:53.726Z,2692.00
2023-04-18T00:40:53.806Z,2687.00
2023-04-18T00:41:53.818Z,2691.00
2023-04-18T00:42:53.850Z,2684.00
2023-04-18T00:43:54.100Z,2683.00
2023-04-18T00:44:53.986Z,2675.00
2023-04-18T00:45:54.067Z,2678.00
2023-04-18T00:46:54.049Z,2678.00
2023-04-18T00:47:54.124Z,2664.00
2023-04-18T00:48:54.148Z,2668.00
2023-04-18T00:49:54.189Z,2665.00
2023-04-18T00:50:54.220Z,2665.00
2023-04-18T00:51:54.400Z,2666.00
2023-04-18T00:52:54.341Z,2665.00
2023-04-18T00:53:54.364Z,2661.00
2023-04-18T00:54:54.405Z,2667.00
2023-04-18T00:55:54.452Z,2655.00
2023-04-18T00:56:54.567Z,2661.00
2023-04-18T00:57:54.555Z,2653.00
2023-04-18T00:58:54.609Z,2651.00
2023-04-18T00:59:54.632Z,2653.00
2023-04-18T01:00:54.722Z,2651.00
2023-04-18T01:01:54.966Z,2647.00
2023-04-18T01:02:54.852Z,2653.00
2023-04-18T01:03:55.034Z,2646.00
2023-04-18T01:04:54.899Z,2643.00
2023-04-18T01:05:54.913Z,2646.00
2023-04-18T01:06:54.932Z,2642.00
2023-04-18T01:07:54.980Z,2639.00
2023-04-18T01:08:55.031Z,2629.00
2023-04-18T01:09:55.078Z,2634.00
2023-04-18T01:10:55.117Z,2628.00
2023-04-18T01:11:55.148Z,2630.00
2023-04-18T01:12:55.195Z,2628.00
2023-04-18T01:13:55.251Z,2624.00
2023-04-18T01:14:55.293Z,2622.00
2023-04-18T01:15:55.375Z,2621.00
2023-04-18T01:16:55.376Z,2619.00
2023-04-18T01:17:55.468Z,2623.00
2023-04-18T01:18:55.475Z,2616.00
2023-04-18T01:19:55.537Z,2612.00
2023-04-18T01:20:55.573Z,2614.00
2023-04-18T01:21:55.588Z,2614.00
2023-04-18T01:22:55.585Z,2616.00
2023-04-18T01:23:55.647Z,2616.00
2023-04-18T01:24:55.584Z,2614.00
2023-04-18T01:25:55.610Z,2614.00
2023-04-18T01:26:55.621Z,2608.00
2023-04-18T01:27:55.617Z,2598.00
2023-04-18T01:28:55.613Z,2604.00
2023-04-18T01:29:55.626Z,2600.00
2023-04-18T01:30:55.643Z,2598.00
2023-04-18T01:31:55.622Z,2601.00
2023-04-18T01:32:55.673Z,2590.00
2023-04-18T01:33:55.630Z,2595.00
2023-04-18T01:34:55.644Z,2593.00
2023-04-18T01:35:55.652Z,2589.00
2023-04-18T01:36:55.681Z,2585.00
2023-04-18T01:37:55.731Z,2585.00
2023-04-18T01:38:55.791Z,2582.00
2023-04-18T01:39:55.825Z,2583.00
2023-04-18T01:40:55.884Z,2584.00
2023-04-18T01:41:55.929Z,2571.00
2023-04-18T01:42:55.980Z,2574.00
2023-04-18T01:43:56.018Z,2571.00
2023-04-18T01:44:56.053Z,2576.00
2023-04-18T01:45:56.128Z,2568.00
2023-04-18T01:46:56.261Z,2570.00
2023-04-18T01:47:56.292Z,2564.00
2023-04-18T01:48:56.263Z,2571.00
2023-04-18T01:49:56.303Z,2562.00
2023-04-18T01:50:56.356Z,2564.00
2023-04-18T01:51:56.400Z,2556.00
2023-04-18T01:52:56.443Z,2555.00
2023-04-18T01:53:56.488Z,2558.00
2023-04-18T01:54:56.532Z,2554.00
2023-04-18T01:55:56.586Z,2551.00
2023-04-18T01:56:56.618Z,2550.00
2023-04-18T01:57:56.669Z,2549.00
2023-04-18T01:58:56.700Z,2544.00
2023-04-18T01:59:56.779Z,2545.00
2023-04-18T02:00:56.829Z,2545.00
2023-04-18T02:01:56.893Z,2546.00
2023-04-18T02:02:56.929Z,2547.00
2023-04-18T02:03:56.913Z,2547.00
2023-04-18T02:04:56.802Z,2551.00
2023-04-18T02:05:56.815Z,2546.00
2023-04-18T02:06:56.829Z,2548.00
2023-04-18T02:07:56.805Z,2548.00
2023-04-18T02:08:56.823Z,2544.00
2023-04-18T02:09:56.814Z,2546.00
2023-04-18T02:10:56.838Z,2536.00
2023-04-18T02:11:56.826Z,2537.00
2023-04-18T02:12:56.820Z,2540.00
2023-04-18T02:13:56.822Z,2540.00
2023-04-18T02:14:56.824Z,2539.00
2023-04-18T02:15:56.930Z,2525.00
2023-04-18T02:16:56.889Z,2528.00
2023-04-18T02:17:56.891Z,2525.00
2023-04-18T02:18:56.838Z,2519.00
2023-04-18T02:19:56.872Z,2526.00
2023-04-18T02:20:56.918Z,2527.00
2023-04-18T02:21:56.969Z,2521.00
2023-04-18T02:22:57.010Z,2524.00
2023-04-18T02:23:57.072Z,2510.00
2023-04-18T02:24:57.114Z,2511.00
2023-04-18T02:25:57.151Z,2511.00
2023-04-18T02:26:57.193Z,2512.00
2023-04-18T02:27:57.228Z,2505.00
2023-04-18T02:28:57.287Z,2505.00
2023-04-18T02:29:57.324Z,2501.00
2023-04-18T02:30:57.382Z,2506.00
2023-04-18T02:31:57.437Z,2500.00
2023-04-18T02:32:57.523Z,2498.00
2023-04-18T02:33:57.500Z,2497.00
2023-04-18T02:34:57.541Z,2495.00
2023-04-18T02:35:57.598Z,2489.00
2023-04-18T02:36:57.650Z,2490.00
2023-04-18T02:37:57.677Z,2486.00
2023-04-18T02:38:57.730Z,2478.00
2023-04-18T02:39:57.777Z,2480.00
2023-04-18T02:40:57.843Z,2482.00
2023-04-18T02:41:57.873Z,2475.00
2023-04-18T02:42:57.925Z,2475.00
2023-04-18T02:43:57.976Z,2472.00
2023-04-18T02:44:58.014Z,2469.00
2023-04-18T02:45:58.104Z,2470.00
2023-04-18T02:46:58.133Z,2462.00
2023-04-18T02:47:58.203Z,2462.00
2023-04-18T02:48:58.252Z,2462.00
2023-04-18T02:49:58.280Z,2460.00
2023-04-18T02:50:58.346Z,2452.00
2023-04-18T02:51:58.381Z,2464.00
2023-04-18T02:52:58.447Z,2454.00
2023-04-18T02:53:58.465Z,2462.00
2023-04-18T02:54:58.484Z,2463.00
2023-04-18T02:55:58.491Z,2463.00
2023-04-18T02:56:58.496Z,2464.00
2023-04-18T02:57:58.503Z,2461.00
2023-04-18T02:58:58.507Z,2457.00
2023-04-18T02:59:58.518Z,2416.00
2023-04-18T03:00:58.572Z,2331.00
2023-04-18T03:01:58.568Z,2250.00
2023-04-18T03:02:58.589Z,2197.00
2023-04-18T03:03:58.569Z,2150.00
2023-04-18T03:04:58.625Z,2103.00
2023-04-18T03:05:58.577Z,2057.00
2023-04-18T03:06:58.580Z,1991.00
2023-04-18T03:07:58.606Z,1941.00
2023-04-18T03:08:58.611Z,1885.00
2023-04-18T03:09:58.630Z,1829.00
2023-04-18T03:10:58.658Z,1796.00
2023-04-18T03:11:58.686Z,1736.00
2023-04-18T03:12:58.695Z,1687.00
2023-04-18T03:13:58.730Z,1643.00
2023-04-18T03:14:58.761Z,1598.00
2023-04-18T03:15:59.011Z,1558.00
2023-04-18T03:16:58.858Z,1529.00
2023-04-18T03:17:58.959Z,1499.00
2023-04-18T03:18:58.947Z,1464.00
2023-04-18T03:19:58.981Z,1439.00
2023-04-18T03:20:59.031Z,1395.00
2023-04-18T03:21:59.080Z,1368.00
2023-04-18T03:22:59.126Z,1338.00
2023-04-18T03:23:59.189Z,1318.00
2023-04-18T03:24:59.232Z,1286.00
2023-04-18T03:25:59.266Z,1263.00
2023-04-18T03:26:59.304Z,1234.00
2023-04-18T03:27:59.368Z,1198.00
2023-04-18T03:28:59.406Z,1180.00
2023-04-18T03:29:59.446Z,1144.00
2023-04-18T03:30:59.538Z,1133.00
2023-04-18T03:31:59.662Z,1105.00
2023-04-18T03:32:59.636Z,1090.00
2023-04-18T03:33:59.653Z,1070.00
2023-04-18T03:34:59.701Z,1042.00
2023-04-18T03:35:59.754Z,1019.00
2023-04-18T03:36:59.776Z,1014.00
2023-04-18T03:37:59.789Z,986.00
2023-04-18T03:38:59.809Z,984.00
2023-04-18T03:39:59.825Z,977.00
2023-04-18T03:40:59.871Z,962.00
2023-04-18T03:41:59.865Z,943.00
2023-04-18T03:42:59.899Z,931.00
2023-04-18T03:43:59.919Z,915.00
2023-04-18T03:44:59.917Z,917.00
2023-04-18T03:45:59.995Z,897.00
2023-04-18T03:46:59.953Z,884.00
2023-04-18T03:48:00.030Z,873.00
2023-04-18T03:48:59.988Z,856.00
2023-04-18T03:50:00.012Z,856.00
2023-04-18T03:51:00.040Z,831.00
2023-04-18T03:52:00.051Z,824.00
2023-04-18T03:53:00.070Z,797.00
2023-04-18T03:54:00.105Z,774.00
2023-04-18T03:55:00.169Z,765.00
2023-04-18T03:56:00.154Z,753.00
2023-04-18T03:57:00.165Z,741.00
2023-04-18T03:58:00.175Z,714.00
2023-04-18T03:59:00.202Z,696.00
2023-04-18T04:00:00.243Z,682.00
2023-04-18T04:01:00.325Z,666.00
2023-04-18T04:02:00.510Z,661.00
2023-04-18T04:03:00.570Z,644.00
2023-04-18T04:04:00.596Z,637.00
2023-04-18T04:05:00.632Z,636.00
2023-04-18T04:06:00.603Z,622.00
2023-04-18T04:07:00.625Z,612.00
2023-04-18T04:08:00.637Z,609.00
2023-04-18T04:09:00.664Z,606.00
2023-04-18T04:10:00.675Z,606.00
2023-04-18T04:11:00.693Z,603.00
2023-04-18T04:12:00.708Z,601.00
2023-04-18T04:13:00.729Z,601.00
2023-04-18T04:14:00.796Z,593.00
2023-04-18T04:15:00.855Z,596.00
2023-04-18T04:16:00.970Z,596.00
2023-04-18T04:17:00.997Z,594.00
2023-04-18T04:18:01.072Z,595.00
2023-04-18T04:19:01.132Z,591.00
2023-04-18T04:20:01.210Z,592.00
2023-04-18T04:21:01.288Z,591.00
2023-04-18T04:22:01.372Z,591.00
2023-04-18T04:23:01.428Z,592.00
2023-04-18T04:24:01.552Z,593.00
2023-04-18T04:25:01.591Z,591.00
2023-04-18T04:26:01.759Z,589.00
2023-04-18T04:27:01.760Z,586.00
2023-04-18T04:28:01.826Z,586.00
2023-04-18T04:29:01.900Z,580.00
2023-04-18T04:30:01.973Z,590.00
2023-04-18T04:31:02.085Z,591.00
2023-04-18T04:32:02.226Z,588.00
2023-04-18T04:33:02.251Z,597.00
2023-04-18T04:34:02.298Z,588.00
2023-04-18T04:35:02.390Z,598.00
2023-04-18T04:36:02.498Z,595.00
2023-04-18T04:37:02.567Z,598.00
2023-04-18T04:38:02.660Z,605.00
2023-04-18T04:39:02.746Z,606.00
2023-04-18T04:40:02.852Z,603.00
2023-04-18T04:41:02.906Z,613.00
2023-04-18T04:42:02.941Z,613.00
2023-04-18T04:43:02.959Z,614.00
2023-04-18T04:44:02.969Z,616.00
2023-04-18T04:45:03.032Z,619.00
2023-04-18T04:46:03.044Z,623.00
2023-04-18T04:47:03.033Z,628.00
2023-04-18T04:48:03.046Z,639.00
2023-04-18T04:49:03.040Z,642.00
2023-04-18T04:50:03.061Z,647.00
2023-04-18T04:51:03.080Z,664.00
2023-04-18T04:52:03.178Z,681.00
2023-04-18T04:53:03.171Z,685.00
2023-04-18T04:54:03.202Z,690.00
2023-04-18T04:55:03.245Z,705.00
2023-04-18T04:56:03.239Z,705.00
2023-04-18T04:57:03.272Z,707.00
2023-04-18T04:58:03.277Z,713.00
2023-04-18T04:59:03.287Z,709.00
2023-04-18T05:00:03.299Z,714.00
2023-04-18T05:01:03.325Z,698.00
2023-04-18T05:02:03.471Z,690.00
2023-04-18T05:03:03.490Z,678.00
2023-04-18T05:04:03.446Z,667.00
2023-04-18T05:05:03.362Z,665.00
2023-04-18T05:06:03.391Z,664.00
2023-04-18T05:07:03.420Z,656.00
2023-04-18T05:08:03.587Z,651.00
2023-04-18T05:09:03.484Z,649.00
2023-04-18T05:10:03.505Z,649.00
2023-04-18T05:11:03.552Z,643.00
2023-04-18T05:12:03.619Z,648.00
2023-04-18T05:13:03.660Z,649.00
2023-04-18T05:14:03.680Z,649.00
2023-04-18T05:15:03.709Z,635.00
2023-04-18T05:16:03.711Z,639.00
2023-04-18T05:17:03.796Z,641.00
2023-04-18T05:18:03.792Z,641.00
2023-04-18T05:19:03.783Z,635.00
2023-04-18T05:20:03.793Z,641.00
2023-04-18T05:21:03.796Z,642.00
2023-04-18T05:22:03.812Z,637.00
2023-04-18T05:23:03.838Z,628.00
2023-04-18T05:24:03.843Z,619.00
2023-04-18T05:25:03.854Z,616.00
2023-04-18T05:26:03.876Z,600.00
2023-04-18T05:27:03.887Z,591.00
2023-04-18T05:28:03.960Z,577.00
2023-04-18T05:29:03.940Z,570.00
2023-04-18T05:30:03.941Z,559.00
2023-04-18T05:31:04.039Z,542.00
2023-04-18T05:32:03.989Z,535.00
2023-04-18T05:33:04.086Z,559.00
2023-04-18T05:34:03.999Z,555.00
2023-04-18T05:35:04.009Z,557.00
2023-04-18T05:36:04.024Z,574.00
2023-04-18T05:37:04.051Z,621.00
2023-04-18T05:38:04.062Z,771.00
2023-04-18T05:39:04.106Z,1107.00
2023-04-18T05:40:04.097Z,1208.00
2023-04-18T05:41:04.082Z,1266.00
2023-04-18T05:42:04.089Z,1346.00
2023-04-18T05:43:04.105Z,1404.00
2023-04-18T05:44:17.177Z,1447.00
2023-04-18T05:45:05.159Z,1450.00
2023-04-18T05:46:04.196Z,1471.00
2023-04-18T05:47:04.366Z,1526.00
2023-04-18T05:48:04.257Z,1629.00
2023-04-18T05:49:04.170Z,1809.00
2023-04-18T05:50:04.176Z,1887.00
2023-04-18T05:51:04.196Z,1994.00
2023-04-18T05:52:04.188Z,1903.00
2023-04-18T05:53:04.196Z,866.00
2023-04-18T05:54:04.264Z,594.00
2023-04-18T05:55:04.290Z,500.00
2023-04-18T05:56:04.361Z,498.00
2023-04-18T05:57:04.946Z,487.00
2023-04-18T05:58:04.457Z,451.00
2023-04-18T05:59:04.541Z,461.00
2023-04-18T06:00:04.585Z,489.00
2023-04-18T06:01:04.634Z,500.00
2023-04-18T06:02:04.791Z,507.00
2023-04-18T06:03:04.956Z,606.00
2023-04-18T06:04:04.960Z,753.00
2023-04-18T06:05:05.168Z,956.00
2023-04-18T06:06:05.028Z,1122.00
2023-04-18T06:07:05.132Z,1154.00
2023-04-18T06:08:05.169Z,1219.00
2023-04-18T06:09:05.237Z,1261.00
2023-04-18T06:10:05.311Z,1299.00
2023-04-18T06:11:05.364Z,1383.00
2023-04-18T06:12:05.420Z,1396.00
2023-04-18T06:13:05.447Z,1303.00
2023-04-18T06:14:05.523Z,1211.00
2023-04-18T06:15:05.501Z,1124.00
2023-04-18T06:16:05.589Z,1107.00
2023-04-18T06:17:05.564Z,1107.00
2023-04-18T06:18:05.605Z,1066.00
2023-04-18T06:19:05.605Z,1092.00
2023-04-18T06:20:05.620Z,1065.00
2023-04-18T06:21:05.636Z,1115.00
2023-04-18T06:22:05.652Z,1036.00
2023-04-18T06:23:05.688Z,985.00
2023-04-18T06:24:05.701Z,965.00
2023-04-18T06:25:05.732Z,966.00
2023-04-18T06:26:05.734Z,975.00
2023-04-18T06:27:05.772Z,1005.00
2023-04-18T06:28:05.807Z,1038.00
2023-04-18T06:29:05.807Z,1078.00
2023-04-18T06:30:05.820Z,1073.00
2023-04-18T06:31:05.889Z,1128.00
2023-04-18T06:32:05.931Z,1144.00
2023-04-18T06:33:05.926Z,1200.00
2023-04-18T06:34:05.919Z,1215.00
2023-04-18T06:35:05.932Z,1185.00
2023-04-18T06:36:05.954Z,1212.00
2023-04-18T06:37:05.979Z,1331.00
2023-04-18T06:38:05.990Z,1455.00
2023-04-18T06:39:06.006Z,1597.00
2023-04-18T06:40:06.007Z,1717.00
2023-04-18T06:41:06.047Z,1832.00
2023-04-18T06:42:06.050Z,1923.00
2023-04-18T06:43:06.062Z,2052.00
2023-04-18T06:44:06.148Z,2153.00
2023-04-18T06:45:06.094Z,1958.00
2023-04-18T06:46:06.245Z,2028.00
2023-04-18T06:47:06.136Z,1968.00
2023-04-18T06:48:06.174Z,1674.00
2023-04-18T06:49:06.164Z,1467.00
2023-04-18T06:50:06.208Z,1311.00
2023-04-18T06:51:06.179Z,1359.00
2023-04-18T06:52:06.215Z,1274.00
2023-04-18T06:53:06.217Z,1195.00
2023-04-18T06:54:06.230Z,1249.00
2023-04-18T06:55:06.224Z,1184.00
2023-04-18T06:56:06.241Z,1019.00
2023-04-18T06:57:06.252Z,880.00
2023-04-18T06:58:06.266Z,900.00
2023-04-18T06:59:06.312Z,903.00
2023-04-18T07:00:06.494Z,902.00
2023-04-18T07:01:06.333Z,945.00
2023-04-18T07:02:06.362Z,1013.00
2023-04-18T07:03:08.017Z,966.00
2023-04-18T07:04:06.397Z,846.00
2023-04-18T07:05:06.364Z,770.00
2023-04-18T07:06:06.380Z,636.00
2023-04-18T07:07:06.398Z,704.00
2023-04-18T07:08:06.402Z,578.00
2023-04-18T07:09:06.430Z,533.00
2023-04-18T07:10:06.460Z,555.00
2023-04-18T07:11:06.464Z,476.00
2023-04-18T07:12:06.489Z,436.00
2023-04-18T07:13:06.484Z,432.00
2023-04-18T07:14:06.511Z,400.00
2023-04-18T07:15:06.543Z,400.00
2023-04-18T07:16:06.540Z,466.00
2023-04-18T07:17:06.684Z,480.00
2023-04-18T07:18:06.620Z,513.00
2023-04-18T07:19:06.568Z,494.00
2023-04-18T07:20:06.588Z,539.00
2023-04-18T07:21:06.600Z,413.00
2023-04-18T07:22:06.607Z,486.00
2023-04-18T07:23:06.675Z,577.00
2023-04-18T07:24:06.638Z,582.00
2023-04-18T07:25:06.646Z,500.00
2023-04-18T07:26:06.649Z,502.00
2023-04-18T07:27:06.670Z,520.00
2023-04-18T07:28:06.680Z,519.00
2023-04-18T07:29:06.687Z,475.00
2023-04-18T07:30:06.706Z,487.00
2023-04-18T07:31:06.776Z,495.00
2023-04-18T07:32:08.382Z,460.00
2023-04-18T07:33:06.764Z,553.00
2023-04-18T07:34:06.762Z,554.00
2023-04-18T07:35:06.822Z,533.00
2023-04-18T07:36:06.799Z,581.00
2023-04-18T07:37:06.807Z,721.00
2023-04-18T07:38:06.830Z,1198.00
2023-04-18T07:39:06.850Z,1521.00
2023-04-18T07:40:06.890Z,1798.00
2023-04-18T07:41:06.907Z,2141.00
2023-04-18T07:42:06.910Z,2362.00
2023-04-18T07:43:06.925Z,2504.00
2023-04-18T07:44:06.959Z,2702.00
2023-04-18T07:45:06.942Z,2860.00
2023-04-18T07:46:06.971Z,2988.00
2023-04-18T07:47:06.987Z,3100.00
2023-04-18T07:48:07.023Z,3213.00
2023-04-18T07:49:06.994Z,3304.00
2023-04-18T07:50:07.015Z,3379.00
2023-04-18T07:51:07.032Z,3464.00
2023-04-18T07:52:07.026Z,3518.00
2023-04-18T07:53:07.030Z,3544.00
2023-04-18T07:54:07.044Z,3599.00
2023-04-18T07:55:07.070Z,3621.00
2023-04-18T07:56:07.089Z,3667.00
2023-04-18T07:57:07.112Z,3684.00
2023-04-18T07:58:07.121Z,3694.00
2023-04-18T07:59:07.186Z,3724.00
2023-04-18T08:00:07.217Z,3727.00
2023-04-18T08:01:07.286Z,3750.00
2023-04-18T08:02:07.349Z,3759.00
2023-04-18T08:03:07.564Z,3770.00
2023-04-18T08:04:07.865Z,3764.00
2023-04-18T08:05:07.651Z,3761.00
2023-04-18T08:06:07.567Z,3761.00
2023-04-18T08:07:07.660Z,3754.00
2023-04-18T08:08:07.770Z,3755.00
2023-04-18T08:09:07.838Z,3726.00
2023-04-18T08:10:07.876Z,3708.00
2023-04-18T08:11:07.939Z,3693.00
2023-04-18T08:12:08.000Z,3656.00
2023-04-18T08:13:08.099Z,3647.00
2023-04-18T08:14:08.175Z,3621.00
2023-04-18T08:15:08.217Z,3566.00
2023-04-18T08:16:08.278Z,3531.00
2023-04-18T08:17:08.333Z,3496.00
2023-04-18T08:18:08.403Z,3481.00
2023-04-18T08:19:08.443Z,3458.00
2023-04-18T08:20:08.480Z,3456.00
2023-04-18T08:21:08.519Z,3429.00
2023-04-18T08:22:08.550Z,3425.00
2023-04-18T08:23:11.170Z,3374.00
2023-04-18T08:24:08.568Z,3351.00
2023-04-18T08:25:08.597Z,3364.00
2023-04-18T08:26:08.590Z,3367.00
2023-04-18T08:27:08.591Z,3375.00
2023-04-18T08:28:08.613Z,3378.00
2023-04-18T08:29:08.620Z,3396.00
2023-04-18T08:30:08.635Z,3385.00
2023-04-18T08:31:08.696Z,3367.00
2023-04-18T08:32:08.700Z,3385.00
2023-04-18T08:33:08.691Z,3442.00
2023-04-18T08:34:08.644Z,3477.00
2023-04-18T08:35:08.662Z,3476.00
2023-04-18T08:36:08.676Z,3464.00
2023-04-18T08:37:08.674Z,3405.00
2023-04-18T08:38:08.680Z,3376.00
2023-04-18T08:39:08.686Z,3359.00
2023-04-18T08:40:08.692Z,3324.00
2023-04-18T08:41:08.705Z,3285.00
2023-04-18T08:42:08.701Z,3260.00
2023-04-18T08:43:08.704Z,3221.00
2023-04-18T08:44:08.710Z,3162.00
2023-04-18T08:45:08.722Z,3107.00
2023-04-18T08:46:08.773Z,3072.00
2023-04-18T08:47:08.733Z,3034.00
2023-04-18T08:48:08.846Z,3015.00
2023-04-18T08:49:10.719Z,2862.00
2023-04-18T08:50:08.870Z,2862.00
2023-04-18T08:51:08.875Z,2877.00
2023-04-18T08:52:08.881Z,2882.00
2023-04-18T08:53:08.865Z,2902.00
2023-04-18T08:54:08.881Z,2953.00
2023-04-18T08:55:08.887Z,3046.00
2023-04-18T08:56:08.873Z,3165.00
2023-04-18T08:57:08.870Z,3167.00
2023-04-18T08:58:08.861Z,3146.00
2023-04-18T08:59:08.873Z,3191.00
2023-04-18T09:00:08.886Z,3177.00
2023-04-18T09:01:08.943Z,3236.00
2023-04-18T09:02:09.109Z,3259.00
2023-04-18T09:03:09.116Z,3295.00
2023-04-18T09:04:09.143Z,3296.00
2023-04-18T09:05:09.142Z,3347.00
2023-04-18T09:06:09.217Z,3337.00
2023-04-18T09:07:09.269Z,3368.00
2023-04-18T09:08:09.354Z,3408.00
2023-04-18T09:09:09.405Z,3411.00
2023-04-18T09:10:09.440Z,3430.00
2023-04-18T09:11:09.489Z,3449.00
2023-04-18T09:12:09.540Z,3445.00
2023-04-18T09:13:09.596Z,3461.00
2023-04-18T09:14:09.676Z,3457.00
2023-04-18T09:15:09.705Z,3429.00
2023-04-18T09:16:09.781Z,3407.00
2023-04-18T09:17:09.775Z,3394.00
2023-04-18T09:18:09.853Z,3396.00
2023-04-18T09:19:09.854Z,3381.00
2023-04-18T09:20:09.897Z,3366.00
2023-04-18T09:21:09.905Z,3355.00
2023-04-18T09:22:09.947Z,3429.00
2023-04-18T09:23:09.981Z,3461.00
2023-04-18T09:24:10.032Z,3466.00
2023-04-18T09:25:10.036Z,3469.00
2023-04-18T09:26:10.031Z,3477.00
2023-04-18T09:27:10.047Z,3493.00
2023-04-18T09:28:10.035Z,3535.00
2023-04-18T09:29:10.037Z,3604.00
2023-04-18T09:30:10.043Z,3620.00
2023-04-18T09:31:10.103Z,3644.00
2023-04-18T09:32:10.047Z,3680.00
2023-04-18T09:33:10.089Z,3710.00
2023-04-18T09:34:10.153Z,3741.00
2023-04-18T09:35:10.231Z,3750.00
2023-04-18T09:36:10.289Z,3776.00
2023-04-18T09:37:10.413Z,3806.00
2023-04-18T09:38:10.426Z,3822.00
2023-04-18T09:39:10.469Z,3851.00
2023-04-18T09:40:10.590Z,3864.00
2023-04-18T09:41:10.598Z,3848.00
2023-04-18T09:42:10.696Z,3822.00
2023-04-18T09:43:10.746Z,3824.00
2023-04-18T09:44:13.974Z,3826.00
2023-04-18T09:45:10.680Z,3826.00
2023-04-18T09:46:10.713Z,3833.00
2023-04-18T09:47:10.684Z,3852.00
2023-04-18T09:48:10.773Z,3888.00
2023-04-18T09:49:11.267Z,3931.00
2023-04-18T09:50:10.689Z,3897.00
2023-04-18T09:51:10.703Z,3898.00
2023-04-18T09:52:10.707Z,3900.00
2023-04-18T09:53:10.694Z,3905.00
2023-04-18T09:54:10.758Z,3909.00
2023-04-18T09:55:10.695Z,3912.00
2023-04-18T09:56:10.750Z,3899.00
2023-04-18T09:57:10.718Z,3903.00
2023-04-18T09:58:10.715Z,3899.00
2023-04-18T09:59:10.718Z,3900.00
2023-04-18T10:00:10.782Z,3907.00
2023-04-18T10:01:10.735Z,3908.00
2023-04-18T10:02:10.746Z,3892.00
2023-04-18T10:03:10.849Z,3889.00
2023-04-18T10:04:10.750Z,3885.00
2023-04-18T10:05:10.896Z,3870.00
2023-04-18T10:06:10.749Z,3834.00
2023-04-18T10:07:10.720Z,3756.00
2023-04-18T10:08:10.733Z,3668.00
2023-04-18T10:10:29.584Z,500.00
2023-04-18T10:11:29.673Z,500.00
2023-04-18T10:12:29.551Z,500.00
2023-04-18T10:13:29.561Z,500.00
2023-04-18T10:14:29.562Z,500.00
2023-04-18T10:15:29.567Z,499.00
2023-04-18T10:16:29.610Z,499.00
2023-04-18T10:17:29.848Z,483.00
2023-04-18T10:18:29.586Z,502.00
2023-04-18T10:19:29.580Z,501.00
2023-04-18T10:20:29.525Z,499.00
2023-04-18T10:21:29.548Z,506.00
2023-04-18T10:22:29.503Z,500.00
2023-04-18T10:23:29.487Z,495.00
2023-04-18T10:24:29.472Z,504.00
2023-04-18T10:25:29.475Z,500.00
2023-04-18T10:26:29.527Z,500.00
2023-04-18T10:27:29.623Z,503.00
2023-04-18T10:28:29.471Z,500.00
2023-04-18T10:29:29.429Z,500.00
2023-04-18T10:30:29.424Z,501.00
2023-04-18T10:31:29.446Z,500.00
2023-04-18T10:32:29.455Z,507.00
2023-04-18T10:33:31.863Z,513.00
2023-04-18T10:34:29.390Z,513.00
2023-04-18T10:35:29.392Z,457.00
2023-04-18T10:36:29.397Z,472.00
2023-04-18T10:37:29.371Z,505.00
2023-04-18T10:38:29.441Z,604.00
2023-04-18T10:39:29.377Z,507.00
2023-04-18T10:40:29.342Z,525.00
2023-04-18T10:41:29.346Z,552.00
2023-04-18T10:42:29.330Z,591.00
2023-04-18T10:43:29.321Z,637.00
2023-04-18T10:44:29.322Z,672.00
2023-04-18T10:45:29.331Z,737.00
2023-04-18T10:46:32.467Z,792.00
2023-04-18T10:47:29.405Z,792.00
2023-04-18T10:48:29.296Z,611.00
2023-04-18T10:49:32.115Z,586.00
2023-04-18T10:50:29.276Z,535.00
2023-04-18T10:51:29.282Z,428.00
2023-04-18T10:52:29.268Z,464.00
2023-04-18T10:53:29.234Z,447.00
2023-04-18T10:54:29.244Z,425.00
2023-04-18T10:55:29.229Z,485.00
2023-04-18T10:56:29.286Z,502.00
2023-04-18T10:57:29.259Z,513.00
2023-04-18T10:58:29.223Z,514.00
2023-04-18T10:59:29.498Z,521.00
2023-04-18T11:00:29.202Z,525.00
2023-04-18T11:01:32.118Z,529.00
2023-04-18T11:02:29.255Z,521.00
2023-04-18T11:03:29.188Z,517.00
2023-04-18T11:04:29.261Z,522.00
2023-04-18T11:05:29.118Z,532.00
2023-04-18T11:06:29.129Z,528.00
2023-04-18T11:07:30.058Z,513.00
2023-04-18T11:08:29.086Z,513.00
2023-04-18T11:09:29.079Z,511.00
2023-04-18T11:10:29.073Z,523.00
2023-04-18T11:11:29.064Z,528.00
2023-04-18T11:12:29.064Z,512.00
2023-04-18T11:13:29.042Z,509.00
2023-04-18T11:14:29.057Z,519.00
2023-04-18T11:15:30.873Z,557.00
2023-04-18T11:16:29.080Z,502.00
2023-04-18T11:17:29.041Z,492.00
2023-04-18T11:18:28.976Z,511.00
2023-04-18T11:19:28.972Z,506.00
2023-04-18T11:20:28.948Z,501.00
2023-04-18T11:21:30.676Z,426.00
2023-04-18T11:22:29.021Z,400.00
2023-04-18T11:23:28.912Z,401.00
2023-04-18T11:24:28.896Z,477.00
2023-04-18T11:25:28.868Z,498.00
2023-04-18T11:26:28.866Z,500.00
2023-04-18T11:27:28.843Z,530.00
2023-04-18T11:28:28.821Z,584.00
2023-04-18T11:29:28.796Z,648.00
2023-04-18T11:30:28.823Z,796.00
2023-04-18T11:31:29.014Z,909.00
2023-04-18T11:32:28.843Z,1022.00
2023-04-18T11:33:28.756Z,1047.00
2023-04-18T11:34:28.743Z,1049.00
2023-04-18T11:35:28.800Z,1067.00
2023-04-18T11:36:28.772Z,1054.00
2023-04-18T11:37:28.777Z,1056.00
2023-04-18T11:38:28.762Z,1092.00
2023-04-18T11:39:28.766Z,1153.00
2023-04-18T11:40:28.745Z,1236.00
2023-04-18T11:41:28.761Z,1055.00
2023-04-18T11:42:28.629Z,1057.00
2023-04-18T11:43:28.624Z,990.00
2023-04-18T11:44:28.598Z,991.00
2023-04-18T11:45:28.592Z,971.00
2023-04-18T11:46:28.618Z,1028.00
2023-04-18T11:47:28.589Z,1029.00
2023-04-18T11:48:28.547Z,821.00
2023-04-18T11:49:28.538Z,736.00
2023-04-18T11:50:28.516Z,794.00
2023-04-18T11:51:28.515Z,816.00
2023-04-18T11:52:28.509Z,837.00
2023-04-18T11:53:28.490Z,804.00
2023-04-18T11:54:28.475Z,820.00
2023-04-18T11:55:28.469Z,949.00
2023-04-18T11:56:28.445Z,1013.00
2023-04-18T11:57:28.428Z,1068.00
2023-04-18T11:58:28.406Z,948.00
2023-04-18T11:59:28.389Z,938.00
2023-04-18T12:00:28.391Z,968.00
2023-04-18T12:01:28.355Z,952.00
2023-04-18T12:02:28.501Z,941.00
2023-04-18T12:03:28.484Z,963.00
2023-04-18T12:04:28.423Z,971.00
2023-04-18T12:05:28.396Z,914.00
2023-04-18T12:06:28.373Z,933.00
2023-04-18T12:07:28.301Z,887.00
2023-04-18T12:08:28.271Z,833.00
2023-04-18T12:09:28.259Z,865.00
2023-04-18T12:10:28.271Z,860.00
2023-04-18T12:11:28.279Z,837.00
2023-04-18T12:12:28.347Z,854.00
2023-04-18T12:13:28.384Z,854.00
2023-04-18T12:14:28.442Z,895.00
2023-04-18T12:15:28.519Z,907.00
2023-04-18T12:16:28.632Z,885.00